sensor_id;sensor_type;location;lat;lon;timestamp;P1;durP1;ratioP1;P2;durP2;ratioP2
74213;SDS011;62576;55.694;37.494;2023-06-14T00:01:48;13.50;;;5.00;;
74213;SDS011;62576;55.694;37.494;2023-06-14T00:04:18;13.20;;;4.88;;
74213;SDS011;62576;55.694;37.494;2023-06-14T00:06:50;10.70;;;4.75;;
74213;SDS011;62576;55.694;37.494;2023-06-14T00:09:20;14.52;;;4.88;;
74213;SDS011;62576;55.694;37.494;2023-06-14T00:11:51;13.70;;;4.60;;
74213;SDS011;62576;55.694;37.494;2023-06-14T00:14:21;17.75;;;5.55;;
74213;SDS011;62576;55.694;37.494;2023-06-14T00:16:49;14.02;;;5.38;;
74213;SDS011;62576;55.694;37.494;2023-06-14T00:19:20;17.70;;;5.22;;
74213;SDS011;62576;55.694;37.494;2023-06-14T00:21:50;15.55;;;5.15;;
74213;SDS011;62576;55.694;37.494;2023-06-14T00:24:21;20.42;;;5.97;;
74213;SDS011;62576;55.694;37.494;2023-06-14T00:26:51;16.05;;;5.60;;
74213;SDS011;62576;55.694;37.494;2023-06-14T00:29:21;16.05;;;5.80;;
74213;SDS011;62576;55.694;37.494;2023-06-14T00:31:52;14.73;;;5.32;;
74213;SDS011;62576;55.694;37.494;2023-06-14T00:34:22;14.32;;;5.10;;
74213;SDS011;62576;55.694;37.494;2023-06-14T00:36:52;15.07;;;5.18;;
74213;SDS011;62576;55.694;37.494;2023-06-14T00:39:23;17.17;;;4.90;;
74213;SDS011;62576;55.694;37.494;2023-06-14T00:41:53;13.73;;;4.63;;
74213;SDS011;62576;55.694;37.494;2023-06-14T00:44:23;15.45;;;4.80;;
74213;SDS011;62576;55.694;37.494;2023-06-14T00:46:57;17.55;;;5.18;;
74213;SDS011;62576;55.694;37.494;2023-06-14T00:49:27;13.68;;;4.85;;
74213;SDS011;62576;55.694;37.494;2023-06-14T00:51:59;13.55;;;5.10;;
74213;SDS011;62576;55.694;37.494;2023-06-14T00:54:30;16.65;;;5.18;;
74213;SDS011;62576;55.694;37.494;2023-06-14T00:57:00;16.25;;;5.25;;
74213;SDS011;62576;55.694;37.494;2023-06-14T00:59:30;14.77;;;5.15;;
74213;SDS011;62576;55.694;37.494;2023-06-14T01:02:02;14.32;;;5.28;;
74213;SDS011;62576;55.694;37.494;2023-06-14T01:04:32;18.08;;;5.57;;
74213;SDS011;62576;55.694;37.494;2023-06-14T01:07:10;21.27;;;5.78;;
74213;SDS011;62576;55.694;37.494;2023-06-14T01:09:48;22.25;;;6.55;;
74213;SDS011;62576;55.694;37.494;2023-06-14T01:12:29;15.23;;;5.55;;
74213;SDS011;62576;55.694;37.494;2023-06-14T01:15:05;16.85;;;5.72;;
74213;SDS011;62576;55.694;37.494;2023-06-14T01:17:38;22.20;;;6.50;;
74213;SDS011;62576;55.694;37.494;2023-06-14T01:20:12;14.55;;;5.43;;
74213;SDS011;62576;55.694;37.494;2023-06-14T01:22:51;14.88;;;5.30;;
74213;SDS011;62576;55.694;37.494;2023-06-14T01:25:24;15.90;;;5.68;;
74213;SDS011;62576;55.694;37.494;2023-06-14T01:27:55;15.77;;;5.82;;
74213;SDS011;62576;55.694;37.494;2023-06-14T01:30:28;16.42;;;6.03;;
74213;SDS011;62576;55.694;37.494;2023-06-14T01:33:01;16.67;;;5.68;;
74213;SDS011;62576;55.694;37.494;2023-06-14T01:35:32;19.60;;;6.07;;
74213;SDS011;62576;55.694;37.494;2023-06-14T01:38:03;14.57;;;5.65;;
74213;SDS011;62576;55.694;37.494;2023-06-14T01:40:34;16.30;;;5.80;;
74213;SDS011;62576;55.694;37.494;2023-06-14T01:43:08;17.23;;;6.20;;
74213;SDS011;62576;55.694;37.494;2023-06-14T01:45:43;16.90;;;6.00;;
74213;SDS011;62576;55.694;37.494;2023-06-14T01:48:15;18.55;;;6.30;;
74213;SDS011;62576;55.694;37.494;2023-06-14T01:50:45;19.50;;;6.30;;
74213;SDS011;62576;55.694;37.494;2023-06-14T01:53:13;28.40;;;6.43;;
74213;SDS011;62576;55.694;37.494;2023-06-14T01:55:43;20.75;;;6.13;;
74213;SDS011;62576;55.694;37.494;2023-06-14T01:58:17;17.67;;;5.88;;
74213;SDS011;62576;55.694;37.494;2023-06-14T02:00:47;23.45;;;6.72;;
74213;SDS011;62576;55.694;37.494;2023-06-14T02:03:23;16.73;;;6.40;;
74213;SDS011;62576;55.694;37.494;2023-06-14T02:05:53;16.70;;;6.32;;
74213;SDS011;62576;55.694;37.494;2023-06-14T02:08:25;22.90;;;6.53;;
74213;SDS011;62576;55.694;37.494;2023-06-14T02:10:55;20.20;;;6.13;;
74213;SDS011;62576;55.694;37.494;2023-06-14T02:13:24;18.33;;;6.05;;
74213;SDS011;62576;55.694;37.494;2023-06-14T02:15:55;13.52;;;5.95;;
74213;SDS011;62576;55.694;37.494;2023-06-14T02:18:25;15.63;;;6.07;;
74213;SDS011;62576;55.694;37.494;2023-06-14T02:20:55;21.38;;;6.32;;
74213;SDS011;62576;55.694;37.494;2023-06-14T02:23:27;15.00;;;6.15;;
74213;SDS011;62576;55.694;37.494;2023-06-14T02:25:56;17.42;;;6.63;;
74213;SDS011;62576;55.694;37.494;2023-06-14T02:28:26;18.10;;;6.35;;
74213;SDS011;62576;55.694;37.494;2023-06-14T02:30:56;17.33;;;6.55;;
74213;SDS011;62576;55.694;37.494;2023-06-14T02:33:27;20.55;;;6.78;;
74213;SDS011;62576;55.694;37.494;2023-06-14T02:35:56;21.27;;;6.72;;
74213;SDS011;62576;55.694;37.494;2023-06-14T02:38:28;19.92;;;6.60;;
74213;SDS011;62576;55.694;37.494;2023-06-14T02:40:58;19.80;;;6.50;;
74213;SDS011;62576;55.694;37.494;2023-06-14T02:43:29;13.98;;;6.43;;
74213;SDS011;62576;55.694;37.494;2023-06-14T02:45:59;17.80;;;6.50;;
74213;SDS011;62576;55.694;37.494;2023-06-14T02:48:29;13.68;;;6.60;;
74213;SDS011;62576;55.694;37.494;2023-06-14T02:50:59;16.05;;;6.93;;
74213;SDS011;62576;55.694;37.494;2023-06-14T02:53:28;15.77;;;6.30;;
74213;SDS011;62576;55.694;37.494;2023-06-14T02:55:58;21.25;;;6.97;;
74213;SDS011;62576;55.694;37.494;2023-06-14T02:58:28;17.15;;;6.85;;
74213;SDS011;62576;55.694;37.494;2023-06-14T03:00:58;15.90;;;6.38;;
74213;SDS011;62576;55.694;37.494;2023-06-14T03:03:31;16.80;;;6.80;;
74213;SDS011;62576;55.694;37.494;2023-06-14T03:06:02;18.13;;;6.50;;
74213;SDS011;62576;55.694;37.494;2023-06-14T03:08:34;21.15;;;7.20;;
74213;SDS011;62576;55.694;37.494;2023-06-14T03:11:07;15.23;;;6.88;;
74213;SDS011;62576;55.694;37.494;2023-06-14T03:13:37;17.27;;;6.70;;
74213;SDS011;62576;55.694;37.494;2023-06-14T03:16:08;19.45;;;7.10;;
74213;SDS011;62576;55.694;37.494;2023-06-14T03:18:39;16.23;;;6.90;;
74213;SDS011;62576;55.694;37.494;2023-06-14T03:21:09;18.80;;;6.80;;
74213;SDS011;62576;55.694;37.494;2023-06-14T03:23:40;19.23;;;6.40;;
74213;SDS011;62576;55.694;37.494;2023-06-14T03:26:10;14.35;;;6.55;;
74213;SDS011;62576;55.694;37.494;2023-06-14T03:28:43;12.88;;;6.18;;
74213;SDS011;62576;55.694;37.494;2023-06-14T03:31:13;16.90;;;6.40;;
74213;SDS011;62576;55.694;37.494;2023-06-14T03:33:44;16.88;;;6.55;;
74213;SDS011;62576;55.694;37.494;2023-06-14T03:36:14;19.40;;;6.43;;
74213;SDS011;62576;55.694;37.494;2023-06-14T03:38:45;18.38;;;6.57;;
74213;SDS011;62576;55.694;37.494;2023-06-14T03:41:15;22.95;;;7.40;;
74213;SDS011;62576;55.694;37.494;2023-06-14T03:43:45;14.25;;;7.13;;
74213;SDS011;62576;55.694;37.494;2023-06-14T03:46:15;19.38;;;7.03;;
74213;SDS011;62576;55.694;37.494;2023-06-14T03:48:45;18.45;;;6.75;;
74213;SDS011;62576;55.694;37.494;2023-06-14T03:51:15;18.17;;;6.97;;
74213;SDS011;62576;55.694;37.494;2023-06-14T03:53:42;19.45;;;6.97;;
74213;SDS011;62576;55.694;37.494;2023-06-14T03:56:13;19.85;;;7.60;;
74213;SDS011;62576;55.694;37.494;2023-06-14T03:58:43;20.02;;;7.07;;
74213;SDS011;62576;55.694;37.494;2023-06-14T04:01:13;22.15;;;7.30;;
74213;SDS011;62576;55.694;37.494;2023-06-14T04:03:43;16.73;;;6.90;;
74213;SDS011;62576;55.694;37.494;2023-06-14T04:06:14;18.45;;;7.43;;
74213;SDS011;62576;55.694;37.494;2023-06-14T04:08:47;19.55;;;7.25;;
74213;SDS011;62576;55.694;37.494;2023-06-14T04:11:19;22.00;;;7.45;;
74213;SDS011;62576;55.694;37.494;2023-06-14T04:13:49;20.30;;;7.20;;
74213;SDS011;62576;55.694;37.494;2023-06-14T04:16:21;21.65;;;7.40;;
74213;SDS011;62576;55.694;37.494;2023-06-14T04:18:52;17.45;;;6.57;;
74213;SDS011;62576;55.694;37.494;2023-06-14T04:21:23;17.83;;;7.40;;
74213;SDS011;62576;55.694;37.494;2023-06-14T04:23:53;17.23;;;7.07;;
74213;SDS011;62576;55.694;37.494;2023-06-14T04:26:25;23.20;;;7.43;;
74213;SDS011;62576;55.694;37.494;2023-06-14T04:28:57;18.48;;;7.32;;
74213;SDS011;62576;55.694;37.494;2023-06-14T04:31:29;17.13;;;6.55;;
74213;SDS011;62576;55.694;37.494;2023-06-14T04:34:01;19.05;;;7.03;;
74213;SDS011;62576;55.694;37.494;2023-06-14T04:36:33;17.00;;;7.60;;
74213;SDS011;62576;55.694;37.494;2023-06-14T04:39:05;20.92;;;7.13;;
74213;SDS011;62576;55.694;37.494;2023-06-14T04:41:36;14.32;;;7.00;;
74213;SDS011;62576;55.694;37.494;2023-06-14T04:44:06;22.40;;;7.93;;
74213;SDS011;62576;55.694;37.494;2023-06-14T04:46:38;24.17;;;7.70;;
74213;SDS011;62576;55.694;37.494;2023-06-14T04:49:14;20.55;;;8.55;;
74213;SDS011;62576;55.694;37.494;2023-06-14T04:51:45;13.60;;;7.00;;
74213;SDS011;62576;55.694;37.494;2023-06-14T04:54:19;20.95;;;6.00;;
74213;SDS011;62576;55.694;37.494;2023-06-14T04:56:51;13.73;;;5.97;;
74213;SDS011;62576;55.694;37.494;2023-06-14T04:59:28;14.60;;;5.85;;
74213;SDS011;62576;55.694;37.494;2023-06-14T05:02:01;14.40;;;5.70;;
74213;SDS011;62576;55.694;37.494;2023-06-14T05:04:31;12.23;;;6.00;;
74213;SDS011;62576;55.694;37.494;2023-06-14T05:07:02;10.85;;;5.05;;
74213;SDS011;62576;55.694;37.494;2023-06-14T05:09:32;13.18;;;5.20;;
74213;SDS011;62576;55.694;37.494;2023-06-14T05:12:04;11.27;;;4.78;;
74213;SDS011;62576;55.694;37.494;2023-06-14T05:14:35;11.77;;;5.50;;
74213;SDS011;62576;55.694;37.494;2023-06-14T05:17:06;10.70;;;4.95;;
74213;SDS011;62576;55.694;37.494;2023-06-14T05:19:36;12.35;;;5.32;;
74213;SDS011;62576;55.694;37.494;2023-06-14T05:22:06;10.10;;;5.30;;
74213;SDS011;62576;55.694;37.494;2023-06-14T05:24:36;16.35;;;6.38;;
74213;SDS011;62576;55.694;37.494;2023-06-14T05:27:07;9.68;;;5.25;;
74213;SDS011;62576;55.694;37.494;2023-06-14T05:29:40;12.73;;;4.60;;
74213;SDS011;62576;55.694;37.494;2023-06-14T05:32:10;10.23;;;4.80;;
74213;SDS011;62576;55.694;37.494;2023-06-14T05:34:40;14.00;;;5.28;;
74213;SDS011;62576;55.694;37.494;2023-06-14T05:37:10;12.60;;;5.32;;
74213;SDS011;62576;55.694;37.494;2023-06-14T05:39:41;9.57;;;4.90;;
74213;SDS011;62576;55.694;37.494;2023-06-14T05:42:12;18.52;;;5.38;;
74213;SDS011;62576;55.694;37.494;2023-06-14T05:44:42;10.47;;;5.03;;
74213;SDS011;62576;55.694;37.494;2023-06-14T05:47:12;10.77;;;5.10;;
74213;SDS011;62576;55.694;37.494;2023-06-14T05:49:42;9.57;;;4.90;;
74213;SDS011;62576;55.694;37.494;2023-06-14T05:52:15;9.95;;;4.80;;
74213;SDS011;62576;55.694;37.494;2023-06-14T05:54:45;10.60;;;4.68;;
74213;SDS011;62576;55.694;37.494;2023-06-14T05:57:17;10.68;;;4.65;;
74213;SDS011;62576;55.694;37.494;2023-06-14T05:59:46;12.13;;;5.55;;
74213;SDS011;62576;55.694;37.494;2023-06-14T06:02:17;11.75;;;4.10;;
74213;SDS011;62576;55.694;37.494;2023-06-14T06:04:47;11.73;;;4.50;;
74213;SDS011;62576;55.694;37.494;2023-06-14T06:07:16;9.35;;;4.00;;
74213;SDS011;62576;55.694;37.494;2023-06-14T06:09:46;9.10;;;3.90;;
74213;SDS011;62576;55.694;37.494;2023-06-14T06:12:18;9.57;;;3.83;;
74213;SDS011;62576;55.694;37.494;2023-06-14T06:14:48;12.07;;;3.83;;
74213;SDS011;62576;55.694;37.494;2023-06-14T06:17:18;9.30;;;3.47;;
74213;SDS011;62576;55.694;37.494;2023-06-14T06:19:48;6.47;;;3.08;;
74213;SDS011;62576;55.694;37.494;2023-06-14T06:22:18;10.90;;;3.47;;
74213;SDS011;62576;55.694;37.494;2023-06-14T06:24:48;8.18;;;3.10;;
74213;SDS011;62576;55.694;37.494;2023-06-14T06:27:20;6.32;;;3.25;;
74213;SDS011;62576;55.694;37.494;2023-06-14T06:29:50;8.20;;;3.30;;
74213;SDS011;62576;55.694;37.494;2023-06-14T06:32:20;6.38;;;3.10;;
74213;SDS011;62576;55.694;37.494;2023-06-14T06:34:51;5.07;;;3.03;;
74213;SDS011;62576;55.694;37.494;2023-06-14T06:37:22;8.07;;;3.00;;
74213;SDS011;62576;55.694;37.494;2023-06-14T06:39:52;7.10;;;3.35;;
74213;SDS011;62576;55.694;37.494;2023-06-14T06:42:24;12.15;;;3.13;;
74213;SDS011;62576;55.694;37.494;2023-06-14T06:44:54;8.13;;;2.95;;
74213;SDS011;62576;55.694;37.494;2023-06-14T06:47:24;9.02;;;3.40;;
74213;SDS011;62576;55.694;37.494;2023-06-14T06:49:54;4.43;;;2.92;;
74213;SDS011;62576;55.694;37.494;2023-06-14T06:52:24;7.53;;;3.10;;
74213;SDS011;62576;55.694;37.494;2023-06-14T06:54:54;11.07;;;3.47;;
74213;SDS011;62576;55.694;37.494;2023-06-14T06:57:25;6.78;;;3.15;;
74213;SDS011;62576;55.694;37.494;2023-06-14T06:59:57;6.43;;;2.83;;
74213;SDS011;62576;55.694;37.494;2023-06-14T07:02:27;10.20;;;3.42;;
74213;SDS011;62576;55.694;37.494;2023-06-14T07:04:59;9.57;;;3.10;;
74213;SDS011;62576;55.694;37.494;2023-06-14T07:07:28;7.75;;;3.00;;
74213;SDS011;62576;55.694;37.494;2023-06-14T07:09:58;7.88;;;3.10;;
74213;SDS011;62576;55.694;37.494;2023-06-14T07:12:34;6.38;;;3.00;;
74213;SDS011;62576;55.694;37.494;2023-06-14T07:15:07;6.25;;;3.05;;
74213;SDS011;62576;55.694;37.494;2023-06-14T07:17:38;6.45;;;3.13;;
74213;SDS011;62576;55.694;37.494;2023-06-14T07:20:08;5.57;;;3.10;;
74213;SDS011;62576;55.694;37.494;2023-06-14T07:22:42;9.85;;;4.53;;
74213;SDS011;62576;55.694;37.494;2023-06-14T07:25:12;9.23;;;3.50;;
74213;SDS011;62576;55.694;37.494;2023-06-14T07:27:44;5.80;;;3.03;;
74213;SDS011;62576;55.694;37.494;2023-06-14T07:30:27;5.95;;;2.83;;
74213;SDS011;62576;55.694;37.494;2023-06-14T07:32:57;7.78;;;3.45;;
74213;SDS011;62576;55.694;37.494;2023-06-14T07:35:28;5.55;;;2.90;;
74213;SDS011;62576;55.694;37.494;2023-06-14T07:37:58;7.07;;;3.10;;
74213;SDS011;62576;55.694;37.494;2023-06-14T07:40:28;7.90;;;3.20;;
74213;SDS011;62576;55.694;37.494;2023-06-14T07:42:59;9.15;;;3.10;;
74213;SDS011;62576;55.694;37.494;2023-06-14T07:45:30;8.75;;;3.45;;
74213;SDS011;62576;55.694;37.494;2023-06-14T07:48:03;11.52;;;3.08;;
74213;SDS011;62576;55.694;37.494;2023-06-14T07:50:33;7.70;;;3.03;;
74213;SDS011;62576;55.694;37.494;2023-06-14T07:53:03;7.60;;;2.80;;
74213;SDS011;62576;55.694;37.494;2023-06-14T07:55:33;8.70;;;3.30;;
74213;SDS011;62576;55.694;37.494;2023-06-14T07:58:06;7.20;;;3.25;;
74213;SDS011;62576;55.694;37.494;2023-06-14T08:00:36;5.75;;;2.85;;
74213;SDS011;62576;55.694;37.494;2023-06-14T08:03:07;6.68;;;3.10;;
74213;SDS011;62576;55.694;37.494;2023-06-14T08:05:38;7.28;;;3.20;;
74213;SDS011;62576;55.694;37.494;2023-06-14T08:08:08;5.30;;;3.05;;
74213;SDS011;62576;55.694;37.494;2023-06-14T08:10:38;5.75;;;3.15;;
74213;SDS011;62576;55.694;37.494;2023-06-14T08:13:13;11.48;;;3.65;;
74213;SDS011;62576;55.694;37.494;2023-06-14T08:15:40;6.72;;;3.50;;
74213;SDS011;62576;55.694;37.494;2023-06-14T08:18:10;7.45;;;3.40;;
74213;SDS011;62576;55.694;37.494;2023-06-14T08:20:40;7.78;;;3.50;;
74213;SDS011;62576;55.694;37.494;2023-06-14T08:23:12;6.40;;;3.45;;
74213;SDS011;62576;55.694;37.494;2023-06-14T08:25:42;8.00;;;3.60;;
74213;SDS011;62576;55.694;37.494;2023-06-14T08:28:16;7.05;;;3.17;;
74213;SDS011;62576;55.694;37.494;2023-06-14T08:30:47;13.15;;;3.55;;
74213;SDS011;62576;55.694;37.494;2023-06-14T08:33:17;7.82;;;3.55;;
74213;SDS011;62576;55.694;37.494;2023-06-14T08:35:47;9.82;;;3.30;;
74213;SDS011;62576;55.694;37.494;2023-06-14T08:38:17;6.60;;;3.20;;
74213;SDS011;62576;55.694;37.494;2023-06-14T08:40:47;10.02;;;3.40;;
74213;SDS011;62576;55.694;37.494;2023-06-14T08:43:24;8.43;;;3.58;;
74213;SDS011;62576;55.694;37.494;2023-06-14T08:45:56;9.88;;;3.40;;
74213;SDS011;62576;55.694;37.494;2023-06-14T08:48:29;8.73;;;3.30;;
74213;SDS011;62576;55.694;37.494;2023-06-14T08:51:01;8.15;;;3.38;;
74213;SDS011;62576;55.694;37.494;2023-06-14T08:53:31;6.43;;;3.63;;
74213;SDS011;62576;55.694;37.494;2023-06-14T08:56:01;10.25;;;3.25;;
74213;SDS011;62576;55.694;37.494;2023-06-14T08:58:34;7.18;;;3.47;;
74213;SDS011;62576;55.694;37.494;2023-06-14T09:01:06;6.03;;;3.45;;
74213;SDS011;62576;55.694;37.494;2023-06-14T09:03:37;8.63;;;3.50;;
74213;SDS011;62576;55.694;37.494;2023-06-14T09:06:08;5.82;;;3.25;;
74213;SDS011;62576;55.694;37.494;2023-06-14T09:11:12;9.60;;;3.35;;
74213;SDS011;62576;55.694;37.494;2023-06-14T09:13:45;8.80;;;3.20;;
74213;SDS011;62576;55.694;37.494;2023-06-14T09:16:16;6.63;;;3.80;;
74213;SDS011;62576;55.694;37.494;2023-06-14T09:18:46;8.88;;;3.45;;
74213;SDS011;62576;55.694;37.494;2023-06-14T09:21:17;7.05;;;3.72;;
74213;SDS011;62576;55.694;37.494;2023-06-14T09:23:47;11.65;;;3.60;;
74213;SDS011;62576;55.694;37.494;2023-06-14T09:26:18;8.32;;;3.75;;
74213;SDS011;62576;55.694;37.494;2023-06-14T09:28:50;12.48;;;3.67;;
74213;SDS011;62576;55.694;37.494;2023-06-14T09:31:20;6.75;;;3.13;;
74213;SDS011;62576;55.694;37.494;2023-06-14T09:33:51;5.82;;;4.00;;
74213;SDS011;62576;55.694;37.494;2023-06-14T09:36:23;7.43;;;3.50;;
74213;SDS011;62576;55.694;37.494;2023-06-14T09:38:55;10.38;;;3.45;;
74213;SDS011;62576;55.694;37.494;2023-06-14T09:44:13;8.77;;;3.42;;
74213;SDS011;62576;55.694;37.494;2023-06-14T09:46:43;6.28;;;3.70;;
74213;SDS011;62576;55.694;37.494;2023-06-14T09:49:13;8.23;;;3.60;;
74213;SDS011;62576;55.694;37.494;2023-06-14T09:51:43;5.88;;;3.70;;
74213;SDS011;62576;55.694;37.494;2023-06-14T09:54:20;9.75;;;3.70;;
74213;SDS011;62576;55.694;37.494;2023-06-14T09:56:52;6.70;;;3.30;;
74213;SDS011;62576;55.694;37.494;2023-06-14T09:59:25;6.30;;;3.28;;
74213;SDS011;62576;55.694;37.494;2023-06-14T10:02:00;6.32;;;3.60;;
74213;SDS011;62576;55.694;37.494;2023-06-14T10:04:41;7.38;;;3.85;;
74213;SDS011;62576;55.694;37.494;2023-06-14T10:07:18;5.90;;;3.53;;
74213;SDS011;62576;55.694;37.494;2023-06-14T10:09:49;10.07;;;3.90;;
74213;SDS011;62576;55.694;37.494;2023-06-14T10:12:22;7.35;;;3.47;;
74213;SDS011;62576;55.694;37.494;2023-06-14T10:14:53;5.47;;;3.50;;
74213;SDS011;62576;55.694;37.494;2023-06-14T10:17:27;12.02;;;3.60;;
74213;SDS011;62576;55.694;37.494;2023-06-14T10:20:14;5.68;;;3.40;;
74213;SDS011;62576;55.694;37.494;2023-06-14T10:22:51;7.78;;;3.70;;
74213;SDS011;62576;55.694;37.494;2023-06-14T10:25:31;9.20;;;3.65;;
74213;SDS011;62576;55.694;37.494;2023-06-14T10:28:03;7.53;;;3.88;;
74213;SDS011;62576;55.694;37.494;2023-06-14T10:33:39;8.27;;;3.60;;
74213;SDS011;62576;55.694;37.494;2023-06-14T10:36:25;5.90;;;3.50;;
74213;SDS011;62576;55.694;37.494;2023-06-14T10:38:59;8.00;;;3.83;;
74213;SDS011;62576;55.694;37.494;2023-06-14T10:41:34;9.43;;;3.80;;
74213;SDS011;62576;55.694;37.494;2023-06-14T10:47:24;7.15;;;3.60;;
74213;SDS011;62576;55.694;37.494;2023-06-14T10:50:02;7.50;;;3.60;;
74213;SDS011;62576;55.694;37.494;2023-06-14T10:52:37;9.50;;;3.47;;
74213;SDS011;62576;55.694;37.494;2023-06-14T10:55:09;5.90;;;3.40;;
74213;SDS011;62576;55.694;37.494;2023-06-14T10:57:43;6.80;;;3.58;;
74213;SDS011;62576;55.694;37.494;2023-06-14T11:00:16;5.57;;;3.33;;
74213;SDS011;62576;55.694;37.494;2023-06-14T11:05:55;10.75;;;3.95;;
74213;SDS011;62576;55.694;37.494;2023-06-14T11:11:25;7.40;;;3.40;;
74213;SDS011;62576;55.694;37.494;2023-06-14T11:14:02;6.00;;;3.30;;
74213;SDS011;62576;55.694;37.494;2023-06-14T11:16:32;7.78;;;3.15;;
74213;SDS011;62576;55.694;37.494;2023-06-14T11:19:02;5.72;;;3.50;;
74213;SDS011;62576;55.694;37.494;2023-06-14T11:21:36;6.18;;;3.30;;
74213;SDS011;62576;55.694;37.494;2023-06-14T11:24:10;7.82;;;4.35;;
74213;SDS011;62576;55.694;37.494;2023-06-14T11:26:40;6.55;;;3.63;;
74213;SDS011;62576;55.694;37.494;2023-06-14T11:29:10;5.38;;;3.70;;
74213;SDS011;62576;55.694;37.494;2023-06-14T11:31:43;6.72;;;3.70;;
74213;SDS011;62576;55.694;37.494;2023-06-14T11:34:14;11.85;;;3.70;;
74213;SDS011;62576;55.694;37.494;2023-06-14T11:36:46;5.93;;;3.60;;
74213;SDS011;62576;55.694;37.494;2023-06-14T11:39:16;9.13;;;3.55;;
74213;SDS011;62576;55.694;37.494;2023-06-14T11:41:45;7.15;;;3.85;;
74213;SDS011;62576;55.694;37.494;2023-06-14T11:44:15;5.75;;;3.65;;
74213;SDS011;62576;55.694;37.494;2023-06-14T11:46:45;5.88;;;3.53;;
74213;SDS011;62576;55.694;37.494;2023-06-14T11:49:15;7.47;;;3.58;;
74213;SDS011;62576;55.694;37.494;2023-06-14T11:51:47;4.82;;;3.65;;
74213;SDS011;62576;55.694;37.494;2023-06-14T11:54:17;7.78;;;3.47;;
74213;SDS011;62576;55.694;37.494;2023-06-14T11:56:45;7.90;;;3.60;;
74213;SDS011;62576;55.694;37.494;2023-06-14T11:59:15;6.72;;;4.00;;
74213;SDS011;62576;55.694;37.494;2023-06-14T12:01:45;6.90;;;3.53;;
74213;SDS011;62576;55.694;37.494;2023-06-14T12:04:23;7.15;;;3.40;;
74213;SDS011;62576;55.694;37.494;2023-06-14T12:06:55;7.20;;;3.72;;
74213;SDS011;62576;55.694;37.494;2023-06-14T12:09:25;6.22;;;3.30;;
74213;SDS011;62576;55.694;37.494;2023-06-14T12:11:59;8.25;;;3.65;;
74213;SDS011;62576;55.694;37.494;2023-06-14T12:14:32;10.20;;;4.63;;
74213;SDS011;62576;55.694;37.494;2023-06-14T12:17:05;8.57;;;3.95;;
74213;SDS011;62576;55.694;37.494;2023-06-14T12:19:41;6.55;;;3.53;;
74213;SDS011;62576;55.694;37.494;2023-06-14T12:22:13;7.65;;;3.60;;
74213;SDS011;62576;55.694;37.494;2023-06-14T12:24:46;5.28;;;3.38;;
74213;SDS011;62576;55.694;37.494;2023-06-14T12:27:16;8.48;;;3.88;;
74213;SDS011;62576;55.694;37.494;2023-06-14T12:29:56;6.47;;;4.40;;
74213;SDS011;62576;55.694;37.494;2023-06-14T12:32:28;7.97;;;3.80;;
74213;SDS011;62576;55.694;37.494;2023-06-14T12:34:58;6.65;;;3.63;;
74213;SDS011;62576;55.694;37.494;2023-06-14T12:37:30;6.90;;;3.73;;
74213;SDS011;62576;55.694;37.494;2023-06-14T12:40:00;7.60;;;3.78;;
74213;SDS011;62576;55.694;37.494;2023-06-14T12:42:33;7.60;;;3.47;;
74213;SDS011;62576;55.694;37.494;2023-06-14T12:45:04;6.00;;;3.17;;
74213;SDS011;62576;55.694;37.494;2023-06-14T12:47:34;6.05;;;3.17;;
74213;SDS011;62576;55.694;37.494;2023-06-14T12:50:05;7.13;;;3.53;;
74213;SDS011;62576;55.694;37.494;2023-06-14T12:52:38;4.68;;;3.33;;
74213;SDS011;62576;55.694;37.494;2023-06-14T12:55:08;8.95;;;3.50;;
74213;SDS011;62576;55.694;37.494;2023-06-14T12:57:38;6.47;;;3.42;;
74213;SDS011;62576;55.694;37.494;2023-06-14T13:00:08;5.68;;;3.30;;
74213;SDS011;62576;55.694;37.494;2023-06-14T13:02:38;15.00;;;4.53;;
74213;SDS011;62576;55.694;37.494;2023-06-14T13:05:08;5.35;;;3.45;;
74213;SDS011;62576;55.694;37.494;2023-06-14T13:07:40;11.93;;;3.72;;
74213;SDS011;62576;55.694;37.494;2023-06-14T13:10:10;8.02;;;3.30;;
74213;SDS011;62576;55.694;37.494;2023-06-14T13:12:40;5.88;;;3.38;;
74213;SDS011;62576;55.694;37.494;2023-06-14T13:15:11;7.18;;;3.15;;
74213;SDS011;62576;55.694;37.494;2023-06-14T13:17:41;4.15;;;3.35;;
74213;SDS011;62576;55.694;37.494;2023-06-14T13:20:16;5.93;;;3.55;;
74213;SDS011;62576;55.694;37.494;2023-06-14T13:22:48;7.15;;;3.83;;
74213;SDS011;62576;55.694;37.494;2023-06-14T13:25:18;5.00;;;3.17;;
74213;SDS011;62576;55.694;37.494;2023-06-14T13:27:50;5.82;;;3.17;;
74213;SDS011;62576;55.694;37.494;2023-06-14T13:30:21;9.43;;;3.57;;
74213;SDS011;62576;55.694;37.494;2023-06-14T13:32:51;7.78;;;3.38;;
74213;SDS011;62576;55.694;37.494;2023-06-14T13:35:21;5.50;;;3.50;;
74213;SDS011;62576;55.694;37.494;2023-06-14T13:37:52;9.38;;;3.33;;
74213;SDS011;62576;55.694;37.494;2023-06-14T13:40:22;5.75;;;3.40;;
74213;SDS011;62576;55.694;37.494;2023-06-14T13:42:53;10.90;;;3.38;;
74213;SDS011;62576;55.694;37.494;2023-06-14T13:45:23;4.30;;;3.10;;
74213;SDS011;62576;55.694;37.494;2023-06-14T13:47:53;7.75;;;3.22;;
74213;SDS011;62576;55.694;37.494;2023-06-14T13:50:23;4.53;;;3.17;;
74213;SDS011;62576;55.694;37.494;2023-06-14T13:52:54;8.67;;;3.40;;
74213;SDS011;62576;55.694;37.494;2023-06-14T13:55:24;7.93;;;3.42;;
74213;SDS011;62576;55.694;37.494;2023-06-14T13:57:54;6.47;;;3.25;;
74213;SDS011;62576;55.694;37.494;2023-06-14T14:00:27;6.22;;;3.47;;
74213;SDS011;62576;55.694;37.494;2023-06-14T14:02:57;7.57;;;3.67;;
74213;SDS011;62576;55.694;37.494;2023-06-14T14:05:27;7.13;;;3.30;;
74213;SDS011;62576;55.694;37.494;2023-06-14T14:07:59;9.80;;;4.63;;
74213;SDS011;62576;55.694;37.494;2023-06-14T14:10:35;6.60;;;3.22;;
74213;SDS011;62576;55.694;37.494;2023-06-14T14:13:05;5.85;;;2.97;;
74213;SDS011;62576;55.694;37.494;2023-06-14T14:15:34;4.65;;;3.10;;
74213;SDS011;62576;55.694;37.494;2023-06-14T14:18:04;6.57;;;3.47;;
74213;SDS011;62576;55.694;37.494;2023-06-14T14:20:38;9.52;;;3.47;;
74213;SDS011;62576;55.694;37.494;2023-06-14T14:23:09;8.85;;;3.72;;
74213;SDS011;62576;55.694;37.494;2023-06-14T14:25:39;8.57;;;3.70;;
74213;SDS011;62576;55.694;37.494;2023-06-14T14:28:09;7.00;;;3.75;;
74213;SDS011;62576;55.694;37.494;2023-06-14T14:30:39;9.87;;;3.57;;
74213;SDS011;62576;55.694;37.494;2023-06-14T14:33:09;5.72;;;3.50;;
74213;SDS011;62576;55.694;37.494;2023-06-14T14:35:43;4.50;;;3.20;;
74213;SDS011;62576;55.694;37.494;2023-06-14T14:38:16;10.77;;;3.50;;
74213;SDS011;62576;55.694;37.494;2023-06-14T14:40:46;5.45;;;3.22;;
74213;SDS011;62576;55.694;37.494;2023-06-14T14:43:16;6.07;;;3.65;;
74213;SDS011;62576;55.694;37.494;2023-06-14T14:45:45;5.80;;;3.17;;
74213;SDS011;62576;55.694;37.494;2023-06-14T14:48:16;6.97;;;3.50;;
74213;SDS011;62576;55.694;37.494;2023-06-14T14:50:46;5.97;;;3.30;;
74213;SDS011;62576;55.694;37.494;2023-06-14T14:53:17;9.87;;;3.30;;
74213;SDS011;62576;55.694;37.494;2023-06-14T14:55:48;6.00;;;3.33;;
74213;SDS011;62576;55.694;37.494;2023-06-14T14:58:17;5.83;;;3.60;;
74213;SDS011;62576;55.694;37.494;2023-06-14T15:00:47;5.20;;;3.25;;
74213;SDS011;62576;55.694;37.494;2023-06-14T15:03:17;5.28;;;3.40;;
74213;SDS011;62576;55.694;37.494;2023-06-14T15:05:47;5.95;;;2.90;;
74213;SDS011;62576;55.694;37.494;2023-06-14T15:08:21;4.45;;;3.20;;
74213;SDS011;62576;55.694;37.494;2023-06-14T15:10:51;4.50;;;3.30;;